Terminal Aerodrome Forecast
Issued by NWS

Home | Current Version | Previous Version | Text Only | Print | Product List | Glossary On
Versions: 1 2 3 4 5 6 7 8 9 10 11 12 13 14 15
000
FTAK31 PAJN 042300
TAFASI
TAF
PASI 042320Z 0500/0524 16005KT 6SM -RA BR SCT015 OVC025
      TEMPO 0500/0504 3SM -RA BR
     FM051000 10005KT 5SM -RA BR BKN015 OVC025
     FM051800 16004KT P6SM VCSH BKN025 OVC040=

USA.gov is the U.S. government's official web portal to all federal, state and local government web resources and services.